createdAt,value
2023-02-15T00:00:11.548Z,102727.00
2023-02-15T00:02:38.534Z,102722.00
2023-02-15T00:05:05.793Z,102727.00
2023-02-15T00:07:32.525Z,102730.00
2023-02-15T00:09:59.741Z,102740.00
2023-02-15T00:12:26.475Z,102725.00
2023-02-15T00:14:53.268Z,102734.00
2023-02-15T00:17:19.980Z,102738.00
2023-02-15T00:19:46.681Z,102726.00
2023-02-15T00:22:13.891Z,102717.00
2023-02-15T00:24:41.494Z,102716.00
2023-02-15T00:27:10.005Z,102701.00
2023-02-15T00:29:37.221Z,102710.00
2023-02-15T00:32:04.489Z,102698.00
2023-02-15T00:34:31.200Z,102696.00
2023-02-15T00:36:58.367Z,102689.00
2023-02-15T00:39:25.332Z,102694.00
2023-02-15T00:41:52.083Z,102688.00
2023-02-15T00:44:18.888Z,102693.00
2023-02-15T00:46:45.682Z,102696.00
2023-02-15T00:49:12.689Z,102697.00
2023-02-15T00:51:40.460Z,102696.00
2023-02-15T00:54:07.773Z,102706.00
2023-02-15T00:56:34.560Z,102702.00
2023-02-15T00:59:01.838Z,102704.00
2023-02-15T01:01:28.582Z,102704.00
2023-02-15T01:03:55.397Z,102697.00
2023-02-15T01:06:22.293Z,102695.00
2023-02-15T01:08:49.511Z,102685.00
2023-02-15T01:11:23.265Z,102693.00
2023-02-15T01:13:51.724Z,102692.00
2023-02-15T01:16:19.258Z,102679.00
2023-02-15T01:18:46.024Z,102679.00
2023-02-15T01:21:20.025Z,102679.00
2023-02-15T01:23:46.821Z,102674.00
2023-02-15T01:26:14.547Z,102668.00
2023-02-15T01:28:41.947Z,102665.00
2023-02-15T01:31:17.091Z,102662.00
2023-02-15T01:33:44.086Z,102660.00
2023-02-15T01:36:11.656Z,102655.00
2023-02-15T01:38:38.532Z,102658.00
2023-02-15T01:41:23.672Z,102662.00
2023-02-15T01:43:57.909Z,102653.00
2023-02-15T01:46:37.761Z,102638.00
2023-02-15T01:49:17.348Z,102633.00
2023-02-15T01:51:48.206Z,102634.00
2023-02-15T01:54:37.546Z,102631.00
2023-02-15T01:57:11.693Z,102630.00
2023-02-15T01:59:43.114Z,102623.00
2023-02-15T02:02:14.408Z,102619.00
2023-02-15T02:04:53.893Z,102616.00
2023-02-15T02:07:24.880Z,102627.00
2023-02-15T02:09:51.762Z,102620.00
2023-02-15T02:12:22.120Z,102608.00
2023-02-15T02:14:51.670Z,102609.00
2023-02-15T02:17:43.651Z,102604.00
2023-02-15T02:20:53.982Z,102617.00
2023-02-15T02:23:50.115Z,102606.00
2023-02-15T02:27:24.959Z,102603.00
2023-02-15T02:30:33.911Z,102599.00
2023-02-15T02:33:56.514Z,102591.00
2023-02-15T02:36:48.603Z,102598.00
2023-02-15T02:39:49.067Z,102596.00
2023-02-15T02:42:36.694Z,102580.00
2023-02-15T02:45:32.960Z,102583.00
2023-02-15T02:48:20.631Z,102574.00
2023-02-15T02:50:47.345Z,102586.00
2023-02-15T02:53:14.041Z,102578.00
2023-02-15T02:55:53.109Z,102579.00
2023-02-15T02:58:30.248Z,102577.00
2023-02-15T03:01:07.330Z,102565.00
2023-02-15T03:03:43.579Z,102576.00
2023-02-15T03:06:24.694Z,102573.00
2023-02-15T03:09:04.085Z,102564.00
2023-02-15T03:11:31.591Z,102565.00
2023-02-15T03:13:59.176Z,102560.00
2023-02-15T03:16:27.097Z,102563.00
2023-02-15T03:19:11.154Z,102572.00
2023-02-15T03:21:58.545Z,102558.00
2023-02-15T03:24:35.571Z,102560.00
2023-02-15T03:27:11.202Z,102557.00
2023-02-15T03:29:39.664Z,102554.00
2023-02-15T03:32:11.272Z,102553.00
2023-02-15T03:34:38.340Z,102542.00
2023-02-15T03:37:31.582Z,102544.00
2023-02-15T03:40:25.588Z,102545.00
2023-02-15T03:43:13.825Z,102549.00
2023-02-15T03:45:55.446Z,102539.00
2023-02-15T03:48:40.809Z,102540.00
2023-02-15T03:51:34.605Z,102544.00
2023-02-15T03:54:38.101Z,102544.00
2023-02-15T03:57:26.524Z,102537.00
2023-02-15T04:00:11.943Z,102532.00
2023-02-15T04:03:15.683Z,102533.00
2023-02-15T04:05:45.855Z,102541.00
2023-02-15T04:08:13.832Z,102529.00
2023-02-15T04:10:57.199Z,102529.00
2023-02-15T04:13:31.686Z,102531.00
2023-02-15T04:16:05.984Z,102527.00
2023-02-15T04:18:58.835Z,102523.00
2023-02-15T04:21:47.393Z,102515.00
2023-02-15T04:24:33.230Z,102515.00
2023-02-15T04:27:00.820Z,102510.00
2023-02-15T04:29:28.664Z,102529.00
2023-02-15T04:32:00.450Z,102524.00
2023-02-15T04:34:27.708Z,102517.00
2023-02-15T04:36:54.427Z,102510.00
2023-02-15T04:39:21.160Z,102515.00
2023-02-15T04:41:48.717Z,102504.00
2023-02-15T04:44:15.924Z,102514.00
2023-02-15T04:46:42.668Z,102506.00
2023-02-15T04:49:10.315Z,102506.00
2023-02-15T04:51:37.464Z,102496.00
2023-02-15T04:54:04.397Z,102503.00
2023-02-15T04:56:32.130Z,102492.00
2023-02-15T04:58:58.844Z,102485.00
2023-02-15T05:01:25.640Z,102473.00
2023-02-15T05:03:52.414Z,102466.00
2023-02-15T05:06:19.216Z,102474.00
2023-02-15T05:08:46.528Z,102462.00
2023-02-15T05:11:13.296Z,102465.00
2023-02-15T05:13:40.004Z,102465.00
2023-02-15T05:16:06.771Z,102472.00
2023-02-15T05:18:33.625Z,102472.00
2023-02-15T05:21:00.354Z,102462.00
2023-02-15T05:23:27.439Z,102462.00
2023-02-15T05:26:12.672Z,102458.00
2023-02-15T05:28:40.062Z,102464.00
2023-02-15T05:31:16.025Z,102455.00
2023-02-15T05:33:43.804Z,102461.00
2023-02-15T05:36:11.782Z,102458.00
2023-02-15T05:38:39.553Z,102456.00
2023-02-15T05:41:08.576Z,102457.00
2023-02-15T05:43:36.050Z,102460.00
2023-02-15T05:46:04.895Z,102458.00
2023-02-15T05:48:32.811Z,102460.00
2023-02-15T05:51:16.783Z,102437.00
2023-02-15T05:53:43.811Z,102439.00
2023-02-15T05:56:12.918Z,102447.00
2023-02-15T05:58:42.484Z,102446.00
2023-02-15T06:01:16.298Z,102445.00
2023-02-15T06:03:43.235Z,102435.00
2023-02-15T06:06:10.776Z,102444.00
2023-02-15T06:08:39.016Z,102444.00
2023-02-15T06:11:06.775Z,102459.00
2023-02-15T06:13:38.034Z,102446.00
2023-02-15T06:16:06.898Z,102441.00
2023-02-15T06:18:33.956Z,102442.00
2023-02-15T06:21:00.860Z,102441.00
2023-02-15T06:23:27.636Z,102451.00
2023-02-15T06:25:54.364Z,102439.00
2023-02-15T06:28:21.116Z,102444.00
2023-02-15T06:30:48.014Z,102441.00
2023-02-15T06:33:14.794Z,102441.00
2023-02-15T06:35:41.507Z,102440.00
2023-02-15T06:38:08.233Z,102434.00
2023-02-15T06:40:35.014Z,102438.00
2023-02-15T06:43:01.804Z,102441.00
2023-02-15T06:45:28.553Z,102434.00
2023-02-15T06:47:55.262Z,102443.00
2023-02-15T06:50:21.970Z,102425.00
2023-02-15T06:52:48.779Z,102437.00
2023-02-15T06:55:15.658Z,102426.00
2023-02-15T06:57:42.587Z,102430.00
2023-02-15T07:00:10.057Z,102433.00
2023-02-15T07:02:37.223Z,102439.00
2023-02-15T07:05:06.096Z,102428.00
2023-02-15T07:07:33.027Z,102424.00
2023-02-15T07:09:59.789Z,102424.00
2023-02-15T07:12:45.495Z,102435.00
2023-02-15T07:15:16.621Z,102432.00
2023-02-15T07:17:44.548Z,102415.00
2023-02-15T07:20:23.840Z,102434.00
2023-02-15T07:22:51.476Z,102415.00
2023-02-15T07:25:19.251Z,102407.00
2023-02-15T07:27:46.675Z,102403.00
2023-02-15T07:30:17.424Z,102404.00
2023-02-15T07:33:05.556Z,102401.00
2023-02-15T07:35:33.597Z,102406.00
2023-02-15T07:38:01.904Z,102402.00
2023-02-15T07:40:28.678Z,102392.00
2023-02-15T07:43:00.072Z,102401.00
2023-02-15T07:45:27.861Z,102397.00
2023-02-15T07:47:54.606Z,102392.00
2023-02-15T07:50:21.322Z,102384.00
2023-02-15T07:52:48.078Z,102388.00
2023-02-15T07:55:14.946Z,102378.00
2023-02-15T07:57:46.571Z,102374.00
2023-02-15T08:00:19.227Z,102364.00
2023-02-15T08:03:10.625Z,102368.00
2023-02-15T08:05:37.608Z,102365.00
2023-02-15T08:08:04.940Z,102369.00
2023-02-15T08:11:03.980Z,102363.00
2023-02-15T08:13:30.691Z,102369.00
2023-02-15T08:15:57.421Z,102367.00
2023-02-15T08:18:24.230Z,102378.00
2023-02-15T08:20:51.463Z,102378.00
2023-02-15T08:23:18.254Z,102386.00
2023-02-15T08:25:45.103Z,102382.00
2023-02-15T08:28:12.127Z,102375.00
2023-02-15T08:30:38.913Z,102363.00
2023-02-15T08:33:05.627Z,102374.00
2023-02-15T08:35:32.506Z,102377.00
2023-02-15T08:37:59.267Z,102363.00
2023-02-15T08:40:25.991Z,102358.00
2023-02-15T08:42:52.721Z,102353.00
2023-02-15T08:45:19.472Z,102354.00
2023-02-15T08:47:46.416Z,102356.00
2023-02-15T08:50:13.147Z,102348.00
2023-02-15T08:52:39.883Z,102341.00
2023-02-15T08:55:06.885Z,102341.00
2023-02-15T08:57:33.590Z,102337.00
2023-02-15T09:00:00.368Z,102333.00
2023-02-15T09:02:27.148Z,102332.00
2023-02-15T09:04:54.099Z,102332.00
2023-02-15T09:07:21.217Z,102323.00
2023-02-15T09:09:48.120Z,102315.00
2023-02-15T09:12:14.842Z,102321.00
2023-02-15T09:14:41.593Z,102329.00
2023-02-15T09:17:08.331Z,102328.00
2023-02-15T09:19:35.172Z,102331.00
2023-02-15T09:22:01.924Z,102325.00
2023-02-15T09:24:32.421Z,102328.00
2023-02-15T09:26:59.126Z,102328.00
2023-02-15T09:29:25.842Z,102327.00
2023-02-15T09:31:54.451Z,102338.00
2023-02-15T09:34:23.447Z,102321.00
2023-02-15T09:36:52.084Z,102334.00
2023-02-15T09:39:20.606Z,102332.00
2023-02-15T09:41:56.084Z,102331.00
2023-02-15T09:44:53.742Z,102327.00
2023-02-15T09:47:53.535Z,102328.00
2023-02-15T09:50:30.538Z,102333.00
2023-02-15T09:53:39.589Z,102331.00
2023-02-15T09:56:39.761Z,102321.00
2023-02-15T09:59:38.436Z,102323.00
2023-02-15T10:02:25.519Z,102325.00
2023-02-15T10:05:08.402Z,102319.00
2023-02-15T10:08:41.686Z,102320.00
2023-02-15T10:11:46.273Z,102320.00
2023-02-15T10:14:39.071Z,102316.00
2023-02-15T10:17:27.033Z,102313.00
2023-02-15T10:20:30.176Z,102322.00
2023-02-15T10:23:40.743Z,102316.00
2023-02-15T10:26:42.703Z,102300.00
2023-02-15T10:29:43.060Z,102307.00
2023-02-15T10:32:25.109Z,102299.00
2023-02-15T10:35:12.646Z,102296.00
2023-02-15T10:38:09.135Z,102282.00
2023-02-15T10:41:05.412Z,102288.00
2023-02-15T10:43:57.143Z,102283.00
2023-02-15T10:47:01.359Z,102280.00
2023-02-15T10:49:51.753Z,102286.00
2023-02-15T10:52:35.991Z,102280.00
2023-02-15T10:55:43.197Z,102275.00
2023-02-15T10:58:21.699Z,102273.00
2023-02-15T11:01:01.595Z,102269.00
2023-02-15T11:04:09.023Z,102270.00
2023-02-15T11:06:43.615Z,102269.00
2023-02-15T11:09:18.996Z,102270.00
2023-02-15T11:11:53.815Z,102251.00
2023-02-15T11:14:47.472Z,102252.00
2023-02-15T11:17:23.185Z,102251.00
2023-02-15T11:20:09.757Z,102246.00
2023-02-15T11:22:37.171Z,102252.00
2023-02-15T11:25:20.232Z,102240.00
2023-02-15T11:27:50.383Z,102244.00
2023-02-15T11:30:41.793Z,102230.00
2023-02-15T11:33:23.324Z,102245.00
2023-02-15T11:36:12.950Z,102228.00
2023-02-15T11:38:44.673Z,102225.00
2023-02-15T11:41:15.844Z,102215.00
2023-02-15T11:44:07.967Z,102231.00
2023-02-15T11:46:35.367Z,102215.00
2023-02-15T11:49:03.840Z,102204.00
2023-02-15T11:51:30.667Z,102214.00
2023-02-15T11:53:57.658Z,102208.00
2023-02-15T11:56:27.011Z,102207.00
2023-02-15T11:59:03.992Z,102203.00
2023-02-15T12:01:43.294Z,102214.00
2023-02-15T12:04:31.269Z,102203.00
2023-02-15T12:07:23.476Z,102209.00
2023-02-15T12:10:05.067Z,102209.00
2023-02-15T12:12:35.902Z,102206.00
2023-02-15T12:15:09.838Z,102205.00
2023-02-15T12:17:40.498Z,102210.00
2023-02-15T12:20:16.433Z,102208.00
2023-02-15T12:23:05.165Z,102199.00
2023-02-15T12:25:52.847Z,102188.00
2023-02-15T12:28:40.400Z,102188.00
2023-02-15T12:31:28.022Z,102191.00
2023-02-15T12:33:59.069Z,102181.00
2023-02-15T12:36:51.703Z,102170.00
2023-02-15T12:39:36.926Z,102172.00
2023-02-15T12:42:16.949Z,102165.00
2023-02-15T12:45:20.722Z,102172.00
2023-02-15T12:48:07.875Z,102157.00
2023-02-15T12:50:35.295Z,102162.00
2023-02-15T12:53:26.381Z,102153.00
2023-02-15T12:55:58.113Z,102150.00
2023-02-15T12:58:31.924Z,102156.00
2023-02-15T13:01:13.635Z,102141.00
2023-02-15T13:04:04.259Z,102146.00
2023-02-15T13:06:37.491Z,102133.00
2023-02-15T13:09:40.563Z,102137.00
2023-02-15T13:12:27.372Z,102128.00
2023-02-15T13:14:56.254Z,102127.00
2023-02-15T13:17:30.547Z,102122.00
2023-02-15T13:20:02.823Z,102130.00
2023-02-15T13:22:45.640Z,102122.00
2023-02-15T13:25:30.659Z,102107.00
2023-02-15T13:28:04.316Z,102097.00
2023-02-15T13:30:39.706Z,102094.00
2023-02-15T13:33:18.834Z,102091.00
2023-02-15T13:36:03.406Z,102090.00
2023-02-15T13:39:11.724Z,102088.00
2023-02-15T13:42:03.266Z,102095.00
2023-02-15T13:45:26.432Z,102088.00
2023-02-15T13:48:34.145Z,102077.00
2023-02-15T13:51:27.348Z,102091.00
2023-02-15T13:54:37.208Z,102080.00
2023-02-15T13:57:41.665Z,102077.00
2023-02-15T14:00:59.180Z,102086.00
2023-02-15T14:04:05.587Z,102086.00
2023-02-15T14:06:59.208Z,102094.00
2023-02-15T14:09:32.211Z,102091.00
2023-02-15T14:12:04.737Z,102087.00
2023-02-15T14:15:13.055Z,102086.00
2023-02-15T14:17:59.291Z,102093.00
2023-02-15T14:20:42.183Z,102103.00
2023-02-15T14:23:50.094Z,102082.00
2023-02-15T14:26:38.285Z,102079.00
2023-02-15T14:29:37.667Z,102069.00
2023-02-15T14:32:47.226Z,102068.00
2023-02-15T14:35:25.870Z,102058.00
2023-02-15T14:38:10.761Z,102069.00
2023-02-15T14:41:13.477Z,102059.00
2023-02-15T14:43:59.710Z,102058.00
2023-02-15T14:46:51.252Z,102064.00
2023-02-15T14:49:32.302Z,102065.00
2023-02-15T14:52:08.057Z,102058.00
2023-02-15T14:54:34.734Z,102059.00
2023-02-15T14:57:01.391Z,102060.00
2023-02-15T14:59:59.110Z,102044.00
2023-02-15T15:02:27.528Z,102048.00
2023-02-15T15:05:11.555Z,102054.00
2023-02-15T15:07:49.683Z,102048.00
2023-02-15T15:10:17.757Z,102041.00
2023-02-15T15:12:53.457Z,102043.00
2023-02-15T15:15:31.880Z,102035.00
2023-02-15T15:18:10.484Z,102028.00
2023-02-15T15:20:52.665Z,102024.00
2023-02-15T15:23:19.343Z,102031.00
2023-02-15T15:25:57.739Z,102025.00
2023-02-15T15:28:36.299Z,102032.00
2023-02-15T15:31:42.951Z,102052.00
2023-02-15T15:34:52.209Z,102060.00
2023-02-15T15:37:48.342Z,102054.00
2023-02-15T15:40:41.628Z,102052.00
2023-02-15T15:44:02.411Z,102048.00
2023-02-15T15:47:10.367Z,102051.00
2023-02-15T15:49:40.203Z,102045.00
2023-02-15T15:52:20.015Z,102046.00
2023-02-15T15:54:53.844Z,102047.00
2023-02-15T15:57:40.387Z,102052.00
2023-02-15T16:00:36.094Z,102037.00
2023-02-15T16:03:03.454Z,102033.00
2023-02-15T16:05:38.465Z,102023.00
2023-02-15T16:08:06.361Z,102021.00
2023-02-15T16:10:35.091Z,102022.00
2023-02-15T16:13:03.135Z,102013.00
2023-02-15T16:15:46.049Z,102025.00
2023-02-15T16:18:19.097Z,102020.00
2023-02-15T16:20:57.862Z,102006.00
2023-02-15T16:23:56.143Z,102011.00
2023-02-15T16:27:04.344Z,102002.00
2023-02-15T16:29:34.207Z,102011.00
2023-02-15T16:32:28.968Z,102005.00
2023-02-15T16:34:59.730Z,102010.00
2023-02-15T16:37:34.535Z,102008.00
2023-02-15T16:40:01.595Z,102012.00
2023-02-15T16:42:28.579Z,102011.00
2023-02-15T16:45:17.078Z,102011.00
2023-02-15T16:47:49.940Z,102012.00
2023-02-15T16:50:38.555Z,102007.00
2023-02-15T16:53:14.718Z,102014.00
2023-02-15T16:55:43.873Z,102003.00
2023-02-15T16:58:17.497Z,102009.00
2023-02-15T17:00:45.107Z,102018.00
2023-02-15T17:03:14.819Z,102014.00
2023-02-15T17:05:50.838Z,102011.00
2023-02-15T17:08:20.719Z,102024.00
2023-02-15T17:11:10.810Z,102021.00
2023-02-15T17:13:37.708Z,102026.00
2023-02-15T17:16:04.730Z,102015.00
2023-02-15T17:18:39.132Z,102015.00
2023-02-15T17:21:28.610Z,102011.00
2023-02-15T17:24:01.449Z,102001.00
2023-02-15T17:26:34.109Z,102007.00
2023-02-15T17:29:34.994Z,102012.00
2023-02-15T17:32:03.015Z,102002.00
2023-02-15T17:35:00.675Z,102009.00
2023-02-15T17:37:39.711Z,102004.00
2023-02-15T17:40:25.735Z,102006.00
2023-02-15T17:42:53.513Z,102009.00
2023-02-15T17:45:22.425Z,101994.00
2023-02-15T17:47:50.357Z,101999.00
2023-02-15T17:50:26.136Z,102002.00
2023-02-15T17:52:56.272Z,102008.00
2023-02-15T17:55:40.039Z,102009.00
2023-02-15T17:58:22.771Z,102004.00
2023-02-15T18:01:15.972Z,102005.00
2023-02-15T18:04:08.388Z,101997.00
2023-02-15T18:06:57.670Z,102008.00
2023-02-15T18:09:44.716Z,102006.00
2023-02-15T18:12:26.612Z,102000.00
2023-02-15T18:14:55.154Z,102002.00
2023-02-15T18:17:46.970Z,102000.00
2023-02-15T18:20:28.154Z,101999.00
2023-02-15T18:22:55.272Z,101994.00
2023-02-15T18:25:25.459Z,101993.00
2023-02-15T18:27:54.844Z,101991.00
2023-02-15T18:30:26.479Z,101992.00
2023-02-15T18:32:57.125Z,101983.00
2023-02-15T18:35:28.416Z,101994.00
2023-02-15T18:37:55.592Z,101994.00
2023-02-15T18:40:27.471Z,101993.00
2023-02-15T18:42:56.902Z,101991.00
2023-02-15T18:45:28.737Z,101982.00
2023-02-15T18:47:55.568Z,101983.00
2023-02-15T18:50:29.006Z,101983.00
2023-02-15T18:52:55.781Z,101971.00
2023-02-15T18:55:27.939Z,101980.00
2023-02-15T18:57:57.332Z,101979.00
2023-02-15T19:00:34.227Z,101975.00
2023-02-15T19:03:02.651Z,101983.00
2023-02-15T19:05:31.970Z,101978.00
2023-02-15T19:08:01.602Z,101961.00
2023-02-15T19:10:31.796Z,101973.00
2023-02-15T19:12:59.300Z,101966.00
2023-02-15T19:15:30.438Z,101960.00
2023-02-15T19:17:57.388Z,101968.00
2023-02-15T19:20:36.220Z,101958.00
2023-02-15T19:23:03.774Z,101964.00
2023-02-15T19:25:37.586Z,101957.00
2023-02-15T19:28:16.170Z,101950.00
2023-02-15T19:30:43.388Z,101945.00
2023-02-15T19:33:20.106Z,101938.00
2023-02-15T19:35:52.406Z,101941.00
2023-02-15T19:38:26.073Z,101924.00
2023-02-15T19:40:53.110Z,101939.00
2023-02-15T19:43:26.875Z,101942.00
2023-02-15T19:45:53.888Z,101929.00
2023-02-15T19:48:20.672Z,101925.00
2023-02-15T19:50:48.983Z,101927.00
2023-02-15T19:53:25.574Z,101916.00
2023-02-15T19:55:53.177Z,101915.00
2023-02-15T19:58:20.474Z,101910.00
2023-02-15T20:00:49.924Z,101911.00
2023-02-15T20:03:17.317Z,101911.00
2023-02-15T20:05:45.326Z,101910.00
2023-02-15T20:08:18.466Z,101907.00
2023-02-15T20:10:45.964Z,101906.00
2023-02-15T20:13:18.548Z,101903.00
2023-02-15T20:15:46.686Z,101898.00
2023-02-15T20:18:13.850Z,101894.00
2023-02-15T20:20:49.404Z,101893.00
2023-02-15T20:23:37.214Z,101886.00
2023-02-15T20:26:18.337Z,101887.00
2023-02-15T20:28:46.736Z,101890.00
2023-02-15T20:31:20.309Z,101883.00
2023-02-15T20:33:50.740Z,101887.00
2023-02-15T20:36:20.881Z,101885.00
2023-02-15T20:38:48.219Z,101883.00
2023-02-15T20:41:36.124Z,101889.00
2023-02-15T20:44:27.640Z,101894.00
2023-02-15T20:46:57.137Z,101891.00
2023-02-15T20:49:26.195Z,101894.00
2023-02-15T20:51:57.244Z,101892.00
2023-02-15T20:54:29.200Z,101894.00
2023-02-15T20:56:55.921Z,101882.00
2023-02-15T20:59:32.356Z,101887.00
2023-02-15T21:02:02.784Z,101900.00
2023-02-15T21:04:33.171Z,101896.00
2023-02-15T21:07:01.051Z,101894.00
2023-02-15T21:09:28.229Z,101893.00
2023-02-15T21:11:58.254Z,101889.00
2023-02-15T21:14:28.305Z,101891.00
2023-02-15T21:16:55.242Z,101889.00
2023-02-15T21:19:24.680Z,101896.00
2023-02-15T21:21:53.387Z,101888.00
2023-02-15T21:24:28.914Z,101887.00
2023-02-15T21:27:00.045Z,101881.00
2023-02-15T21:29:29.192Z,101879.00
2023-02-15T21:32:00.353Z,101881.00
2023-02-15T21:34:27.258Z,101881.00
2023-02-15T21:36:54.148Z,101882.00
2023-02-15T21:39:27.779Z,101885.00
2023-02-15T21:42:14.954Z,101889.00
2023-02-15T21:45:00.987Z,101898.00
2023-02-15T21:47:50.117Z,101892.00
2023-02-15T21:50:42.125Z,101895.00
2023-02-15T21:53:19.866Z,101892.00
2023-02-15T21:55:46.605Z,101894.00
2023-02-15T21:58:22.919Z,101892.00
2023-02-15T22:00:50.258Z,101891.00
2023-02-15T22:03:17.206Z,101893.00
2023-02-15T22:05:44.026Z,101892.00
2023-02-15T22:08:14.156Z,101888.00
2023-02-15T22:10:42.582Z,101889.00
2023-02-15T22:13:16.066Z,101896.00
2023-02-15T22:15:46.564Z,101892.00
2023-02-15T22:18:24.194Z,101886.00
2023-02-15T22:20:52.408Z,101885.00
2023-02-15T22:23:19.754Z,101874.00
2023-02-15T22:25:57.777Z,101880.00
2023-02-15T22:28:35.890Z,101874.00
2023-02-15T22:31:06.712Z,101870.00
2023-02-15T22:33:34.741Z,101869.00
2023-02-15T22:36:02.283Z,101863.00
2023-02-15T22:38:29.053Z,101865.00
2023-02-15T22:41:03.644Z,101880.00
2023-02-15T22:43:40.152Z,101883.00
2023-02-15T22:46:22.244Z,101871.00
2023-02-15T22:48:49.815Z,101888.00
2023-02-15T22:51:21.164Z,101877.00
2023-02-15T22:53:51.752Z,101876.00
2023-02-15T22:56:36.636Z,101869.00
2023-02-15T22:59:19.220Z,101863.00
2023-02-15T23:01:46.570Z,101858.00
2023-02-15T23:04:20.210Z,101858.00
2023-02-15T23:06:47.873Z,101851.00
2023-02-15T23:09:16.362Z,101853.00
2023-02-15T23:11:44.216Z,101848.00
2023-02-15T23:14:19.868Z,101842.00
2023-02-15T23:16:46.621Z,101849.00
2023-02-15T23:19:15.577Z,101854.00
2023-02-15T23:21:42.903Z,101845.00
2023-02-15T23:24:26.867Z,101855.00
2023-02-15T23:26:54.759Z,101848.00
2023-02-15T23:29:23.829Z,101855.00
2023-02-15T23:31:53.466Z,101850.00
2023-02-15T23:34:27.644Z,101858.00
2023-02-15T23:36:54.683Z,101860.00
2023-02-15T23:39:47.035Z,101853.00
2023-02-15T23:42:21.327Z,101851.00
2023-02-15T23:44:48.678Z,101854.00
2023-02-15T23:47:44.089Z,101858.00
2023-02-15T23:50:27.071Z,101860.00
2023-02-15T23:52:55.388Z,101856.00
2023-02-15T23:55:25.459Z,101859.00
2023-02-15T23:57:53.473Z,101865.00
